sensor_id;sensor_type;location;lat;lon;timestamp;pressure;altitude;pressure_sealevel;temperature;humidity
22964;BME280;11648;49.306;6.934;2023-02-16T00:03:43;99451.91;;;8.13;59.83
22964;BME280;11648;49.306;6.934;2023-02-16T00:06:10;99449.13;;;8.01;58.77
22964;BME280;11648;49.306;6.934;2023-02-16T00:08:50;99441.81;;;7.81;59.83
22964;BME280;11648;49.306;6.934;2023-02-16T00:11:30;99446.03;;;7.70;60.91
22964;BME280;11648;49.306;6.934;2023-02-16T00:14:17;99453.13;;;7.77;61.26
22964;BME280;11648;49.306;6.934;2023-02-16T00:16:44;99440.06;;;7.79;61.56
22964;BME280;11648;49.306;6.934;2023-02-16T00:21:55;99436.66;;;7.86;60.79
22964;BME280;11648;49.306;6.934;2023-02-16T00:24:23;99440.13;;;7.85;59.92
22964;BME280;11648;49.306;6.934;2023-02-16T00:26:49;99433.16;;;7.87;60.55
22964;BME280;11648;49.306;6.934;2023-02-16T00:31:49;99446.50;;;8.02;61.04
22964;BME280;11648;49.306;6.934;2023-02-16T00:34:30;99438.69;;;8.05;60.08
22964;BME280;11648;49.306;6.934;2023-02-16T00:37:01;99437.59;;;7.91;59.02
22964;BME280;11648;49.306;6.934;2023-02-16T00:39:28;99444.53;;;7.86;59.55
22964;BME280;11648;49.306;6.934;2023-02-16T00:42:01;99439.41;;;7.93;59.98
22964;BME280;11648;49.306;6.934;2023-02-16T00:44:49;99434.16;;;7.93;59.72
22964;BME280;11648;49.306;6.934;2023-02-16T00:47:29;99435.91;;;7.93;60.42
22964;BME280;11648;49.306;6.934;2023-02-16T00:49:57;99433.28;;;7.94;60.28
22964;BME280;11648;49.306;6.934;2023-02-16T00:52:38;99434.22;;;7.98;61.05
22964;BME280;11648;49.306;6.934;2023-02-16T00:55:11;99431.59;;;7.98;60.45
22964;BME280;11648;49.306;6.934;2023-02-16T00:57:51;99427.28;;;8.02;60.21
22964;BME280;11648;49.306;6.934;2023-02-16T01:02:59;99437.78;;;8.05;60.13
22964;BME280;11648;49.306;6.934;2023-02-16T01:05:27;99435.06;;;7.95;59.31
22964;BME280;11648;49.306;6.934;2023-02-16T01:07:57;99438.38;;;7.82;59.54
22964;BME280;11648;49.306;6.934;2023-02-16T01:10:43;99430.41;;;7.78;59.29
22964;BME280;11648;49.306;6.934;2023-02-16T01:13:30;99433.00;;;7.76;60.27
22964;BME280;11648;49.306;6.934;2023-02-16T01:15:58;99435.66;;;7.78;60.34
22964;BME280;11648;49.306;6.934;2023-02-16T01:18:28;99434.72;;;7.74;60.44
22964;BME280;11648;49.306;6.934;2023-02-16T01:20:54;99431.19;;;7.72;60.29
22964;BME280;11648;49.306;6.934;2023-02-16T01:23:21;99440.84;;;7.75;60.72
22964;BME280;11648;49.306;6.934;2023-02-16T01:25:48;99432.16;;;7.76;61.10
22964;BME280;11648;49.306;6.934;2023-02-16T01:28:20;99433.09;;;7.81;60.25
22964;BME280;11648;49.306;6.934;2023-02-16T01:30:48;99427.75;;;7.76;59.72
22964;BME280;11648;49.306;6.934;2023-02-16T01:33:15;99428.56;;;7.71;60.48
22964;BME280;11648;49.306;6.934;2023-02-16T01:35:42;99426.78;;;7.70;61.63
22964;BME280;11648;49.306;6.934;2023-02-16T01:38:24;99433.75;;;7.69;62.00
22964;BME280;11648;49.306;6.934;2023-02-16T01:43:43;99425.09;;;7.73;62.53
22964;BME280;11648;49.306;6.934;2023-02-16T01:46:30;99420.69;;;7.72;61.94
22964;BME280;11648;49.306;6.934;2023-02-16T01:48:58;99426.78;;;7.70;61.05
22964;BME280;11648;49.306;6.934;2023-02-16T01:51:28;99428.47;;;7.65;61.05
22964;BME280;11648;49.306;6.934;2023-02-16T01:54:13;99429.97;;;7.51;60.62
22964;BME280;11648;49.306;6.934;2023-02-16T01:57:03;99422.81;;;7.40;60.54
22964;BME280;11648;49.306;6.934;2023-02-16T02:02:23;99421.81;;;7.34;62.19
22964;BME280;11648;49.306;6.934;2023-02-16T02:05:01;99416.63;;;7.37;62.44
22964;BME280;11648;49.306;6.934;2023-02-16T02:10:52;99412.50;;;7.50;63.57
22964;BME280;11648;49.306;6.934;2023-02-16T02:13:39;99409.13;;;7.57;63.75
22964;BME280;11648;49.306;6.934;2023-02-16T02:16:08;99399.56;;;7.60;63.21
22964;BME280;11648;49.306;6.934;2023-02-16T02:18:36;99403.06;;;7.62;62.80
22964;BME280;11648;49.306;6.934;2023-02-16T02:27:01;99399.22;;;7.39;61.02
22964;BME280;11648;49.306;6.934;2023-02-16T02:32:39;99393.09;;;7.38;62.74
22964;BME280;11648;49.306;6.934;2023-02-16T02:40:58;99388.63;;;7.33;61.37
22964;BME280;11648;49.306;6.934;2023-02-16T02:43:40;99396.44;;;7.30;61.63
22964;BME280;11648;49.306;6.934;2023-02-16T02:48:35;99404.00;;;7.13;60.97
22964;BME280;11648;49.306;6.934;2023-02-16T02:51:13;99402.13;;;7.08;61.06
22964;BME280;11648;49.306;6.934;2023-02-16T02:54:14;99396.84;;;7.03;61.10
22964;BME280;11648;49.306;6.934;2023-02-16T02:57:28;99393.34;;;7.03;61.87
22964;BME280;11648;49.306;6.934;2023-02-16T03:00:12;99392.31;;;6.94;61.71
22964;BME280;11648;49.306;6.934;2023-02-16T03:06:36;99393.91;;;6.86;62.46
22964;BME280;11648;49.306;6.934;2023-02-16T03:08:45;99391.31;;;6.88;62.65
22964;BME280;11648;49.306;6.934;2023-02-16T03:11:21;99386.94;;;6.87;62.86
22964;BME280;11648;49.306;6.934;2023-02-16T03:14:13;99386.97;;;6.90;62.88
22964;BME280;11648;49.306;6.934;2023-02-16T03:16:56;99385.38;;;6.97;63.36
22964;BME280;11648;49.306;6.934;2023-02-16T03:19:43;99395.97;;;7.03;62.87
22964;BME280;11648;49.306;6.934;2023-02-16T03:22:30;99383.75;;;7.03;61.90
22964;BME280;11648;49.306;6.934;2023-02-16T03:25:16;99387.22;;;7.02;62.19
22964;BME280;11648;49.306;6.934;2023-02-16T03:28:06;99383.66;;;6.99;61.46
22964;BME280;11648;49.306;6.934;2023-02-16T03:30:53;99391.47;;;6.97;61.45
22964;BME280;11648;49.306;6.934;2023-02-16T03:33:22;99386.97;;;6.90;60.84
22964;BME280;11648;49.306;6.934;2023-02-16T03:35:49;99385.19;;;6.86;62.01
22964;BME280;11648;49.306;6.934;2023-02-16T03:38:16;99384.31;;;6.87;62.45
22964;BME280;11648;49.306;6.934;2023-02-16T03:40:44;99379.03;;;6.82;61.84
22964;BME280;11648;49.306;6.934;2023-02-16T03:43:13;99380.47;;;6.67;61.71
22964;BME280;11648;49.306;6.934;2023-02-16T03:45:41;99390.09;;;6.69;63.02
22964;BME280;11648;49.306;6.934;2023-02-16T03:48:09;99382.13;;;6.63;61.14
22964;BME280;11648;49.306;6.934;2023-02-16T03:50:36;99382.72;;;6.49;60.60
22964;BME280;11648;49.306;6.934;2023-02-16T03:53:03;99383.44;;;6.43;61.57
22964;BME280;11648;49.306;6.934;2023-02-16T03:58:00;99379.16;;;6.45;63.71
22964;BME280;11648;49.306;6.934;2023-02-16T04:00:27;99383.41;;;6.40;63.53
22964;BME280;11648;49.306;6.934;2023-02-16T04:02:54;99379.03;;;6.39;63.42
22964;BME280;11648;49.306;6.934;2023-02-16T04:05:20;99373.81;;;6.40;63.59
22964;BME280;11648;49.306;6.934;2023-02-16T04:07:47;99378.22;;;6.43;63.87
22964;BME280;11648;49.306;6.934;2023-02-16T04:10:14;99384.38;;;6.45;63.48
22964;BME280;11648;49.306;6.934;2023-02-16T04:12:41;99381.81;;;6.48;62.97
22964;BME280;11648;49.306;6.934;2023-02-16T04:15:13;99383.53;;;6.46;62.89
22964;BME280;11648;49.306;6.934;2023-02-16T04:17:40;99383.53;;;6.46;62.86
22964;BME280;11648;49.306;6.934;2023-02-16T04:20:09;99379.19;;;6.47;62.08
22964;BME280;11648;49.306;6.934;2023-02-16T04:22:37;99381.81;;;6.47;62.78
22964;BME280;11648;49.306;6.934;2023-02-16T04:25:04;99375.59;;;6.43;62.27
22964;BME280;11648;49.306;6.934;2023-02-16T04:27:31;99381.72;;;6.42;62.40
22964;BME280;11648;49.306;6.934;2023-02-16T04:29:57;99372.81;;;6.34;62.61
22964;BME280;11648;49.306;6.934;2023-02-16T04:32:24;99380.78;;;6.38;63.31
22964;BME280;11648;49.306;6.934;2023-02-16T04:34:51;99386.94;;;6.42;63.55
22964;BME280;11648;49.306;6.934;2023-02-16T04:37:17;99386.94;;;6.42;62.96
22964;BME280;11648;49.306;6.934;2023-02-16T04:39:44;99392.91;;;6.35;62.34
22964;BME280;11648;49.306;6.934;2023-02-16T04:42:11;99388.50;;;6.34;62.10
22964;BME280;11648;49.306;6.934;2023-02-16T04:44:37;99379.31;;;6.53;62.43
22964;BME280;11648;49.306;6.934;2023-02-16T04:47:04;99391.38;;;6.46;62.70
22964;BME280;11648;49.306;6.934;2023-02-16T04:49:31;99395.63;;;6.41;61.73
22964;BME280;11648;49.306;6.934;2023-02-16T04:51:57;99390.13;;;6.27;61.69
22964;BME280;11648;49.306;6.934;2023-02-16T04:54:26;99380.38;;;6.20;62.32
22964;BME280;11648;49.306;6.934;2023-02-16T04:56:53;99386.44;;;6.18;63.34
22964;BME280;11648;49.306;6.934;2023-02-16T04:59:20;99379.59;;;6.24;63.83
22964;BME280;11648;49.306;6.934;2023-02-16T05:01:47;99389.47;;;6.37;63.85
22964;BME280;11648;49.306;6.934;2023-02-16T05:04:14;99388.78;;;6.46;62.53
22964;BME280;11648;49.306;6.934;2023-02-16T05:06:42;99390.34;;;6.39;62.55
22964;BME280;11648;49.306;6.934;2023-02-16T05:09:09;99396.41;;;6.37;62.43
22964;BME280;11648;49.306;6.934;2023-02-16T05:11:35;99387.63;;;6.33;62.57
22964;BME280;11648;49.306;6.934;2023-02-16T05:14:33;99388.47;;;6.32;62.23
22964;BME280;11648;49.306;6.934;2023-02-16T05:17:22;99378.00;;;6.31;63.02
22964;BME280;11648;49.306;6.934;2023-02-16T05:19:51;99390.06;;;6.26;62.71
22964;BME280;11648;49.306;6.934;2023-02-16T05:22:18;99396.19;;;6.26;62.33
22964;BME280;11648;49.306;6.934;2023-02-16T05:24:46;99386.50;;;6.21;62.31
22964;BME280;11648;49.306;6.934;2023-02-16T05:27:17;99395.28;;;6.24;62.84
22964;BME280;11648;49.306;6.934;2023-02-16T05:29:44;99393.41;;;6.19;62.53
22964;BME280;11648;49.306;6.934;2023-02-16T05:32:11;99396.81;;;6.15;62.88
22964;BME280;11648;49.306;6.934;2023-02-16T05:34:38;99391.53;;;6.12;62.73
22964;BME280;11648;49.306;6.934;2023-02-16T05:37:05;99393.34;;;6.14;63.73
22964;BME280;11648;49.306;6.934;2023-02-16T05:39:32;99391.59;;;6.15;63.21
22964;BME280;11648;49.306;6.934;2023-02-16T05:42:00;99393.34;;;6.16;63.82
22964;BME280;11648;49.306;6.934;2023-02-16T05:44:26;99386.47;;;6.19;63.50
22964;BME280;11648;49.306;6.934;2023-02-16T05:46:53;99389.84;;;6.15;63.32
22964;BME280;11648;49.306;6.934;2023-02-16T05:49:20;99397.53;;;6.08;62.94
22964;BME280;11648;49.306;6.934;2023-02-16T05:51:47;99393.00;;;5.99;62.60
22964;BME280;11648;49.306;6.934;2023-02-16T05:54:13;99392.63;;;6.23;62.48
22964;BME280;11648;49.306;6.934;2023-02-16T05:56:47;99397.69;;;6.15;62.91
22964;BME280;11648;49.306;6.934;2023-02-16T05:59:15;99392.34;;;6.11;61.25
22964;BME280;11648;49.306;6.934;2023-02-16T06:01:42;99399.38;;;6.12;62.21
22964;BME280;11648;49.306;6.934;2023-02-16T06:04:12;99407.16;;;6.09;62.87
22964;BME280;11648;49.306;6.934;2023-02-16T06:06:40;99409.81;;;6.10;62.04
22964;BME280;11648;49.306;6.934;2023-02-16T06:09:07;99412.38;;;6.09;62.97
22964;BME280;11648;49.306;6.934;2023-02-16T06:11:35;99410.75;;;6.15;63.30
22964;BME280;11648;49.306;6.934;2023-02-16T06:16:33;99405.53;;;6.15;63.60
22964;BME280;11648;49.306;6.934;2023-02-16T06:19:00;99399.41;;;6.15;62.89
22964;BME280;11648;49.306;6.934;2023-02-16T06:21:27;99410.75;;;6.15;62.83
22964;BME280;11648;49.306;6.934;2023-02-16T06:23:54;99415.75;;;6.05;62.37
22964;BME280;11648;49.306;6.934;2023-02-16T06:26:21;99416.75;;;6.10;62.50
22964;BME280;11648;49.306;6.934;2023-02-16T06:28:48;99424.53;;;6.07;63.71
22964;BME280;11648;49.306;6.934;2023-02-16T06:31:15;99424.63;;;6.11;64.36
22964;BME280;11648;49.306;6.934;2023-02-16T06:33:42;99427.16;;;6.08;63.23
22964;BME280;11648;49.306;6.934;2023-02-16T06:36:09;99428.84;;;6.05;62.49
22964;BME280;11648;49.306;6.934;2023-02-16T06:38:36;99439.16;;;6.00;61.61
22964;BME280;11648;49.306;6.934;2023-02-16T06:41:03;99432.84;;;5.89;61.68
22964;BME280;11648;49.306;6.934;2023-02-16T06:43:30;99438.94;;;5.89;63.01
22964;BME280;11648;49.306;6.934;2023-02-16T06:45:57;99440.78;;;5.93;63.09
22964;BME280;11648;49.306;6.934;2023-02-16T06:48:24;99437.38;;;5.97;63.18
22964;BME280;11648;49.306;6.934;2023-02-16T06:50:51;99440.88;;;5.98;62.77
22964;BME280;11648;49.306;6.934;2023-02-16T06:53:18;99442.59;;;5.96;63.19
22964;BME280;11648;49.306;6.934;2023-02-16T06:55:46;99448.53;;;5.89;62.19
22964;BME280;11648;49.306;6.934;2023-02-16T06:58:15;99438.81;;;5.85;61.49
22964;BME280;11648;49.306;6.934;2023-02-16T07:00:41;99438.66;;;5.79;61.88
22964;BME280;11648;49.306;6.934;2023-02-16T07:03:08;99457.06;;;5.83;62.26
22964;BME280;11648;49.306;6.934;2023-02-16T07:05:35;99459.75;;;5.86;61.89
22964;BME280;11648;49.306;6.934;2023-02-16T07:08:01;99459.06;;;5.93;62.29
22964;BME280;11648;49.306;6.934;2023-02-16T07:10:28;99461.84;;;6.01;62.41
22964;BME280;11648;49.306;6.934;2023-02-16T07:13:14;99457.69;;;6.09;62.17
22964;BME280;11648;49.306;6.934;2023-02-16T07:15:41;99441.88;;;6.03;60.95
22964;BME280;11648;49.306;6.934;2023-02-16T07:18:08;99442.44;;;5.90;61.22
22964;BME280;11648;49.306;6.934;2023-02-16T07:20:35;99444.38;;;5.99;60.90
22964;BME280;11648;49.306;6.934;2023-02-16T07:23:01;99439.34;;;6.06;61.45
22964;BME280;11648;49.306;6.934;2023-02-16T07:25:28;99438.75;;;6.19;61.54
22964;BME280;11648;49.306;6.934;2023-02-16T07:27:55;99441.81;;;6.39;62.00
22964;BME280;11648;49.306;6.934;2023-02-16T07:30:21;99437.84;;;6.59;61.55
22964;BME280;11648;49.306;6.934;2023-02-16T07:32:48;99436.50;;;6.78;62.24
22964;BME280;11648;49.306;6.934;2023-02-16T07:35:15;99436.91;;;7.01;61.04
22964;BME280;11648;49.306;6.934;2023-02-16T07:37:41;99430.25;;;7.16;60.02
22964;BME280;11648;49.306;6.934;2023-02-16T07:40:09;99431.69;;;7.49;58.86
22964;BME280;11648;49.306;6.934;2023-02-16T07:42:36;99438.63;;;8.01;59.34
22964;BME280;11648;49.306;6.934;2023-02-16T07:45:03;99430.72;;;8.59;57.58
22964;BME280;11648;49.306;6.934;2023-02-16T07:47:30;99413.88;;;9.17;55.41
22964;BME280;11648;49.306;6.934;2023-02-16T07:49:57;99418.81;;;9.85;52.73
22964;BME280;11648;49.306;6.934;2023-02-16T07:52:24;99420.06;;;10.34;51.12
22964;BME280;11648;49.306;6.934;2023-02-16T07:54:56;99409.72;;;10.88;49.63
22964;BME280;11648;49.306;6.934;2023-02-16T07:57:25;99410.72;;;11.65;48.73
22964;BME280;11648;49.306;6.934;2023-02-16T07:59:53;99402.78;;;12.19;48.06
22964;BME280;11648;49.306;6.934;2023-02-16T08:02:20;99404.47;;;12.40;47.24
22964;BME280;11648;49.306;6.934;2023-02-16T08:04:48;99384.84;;;12.99;46.06
22964;BME280;11648;49.306;6.934;2023-02-16T08:07:15;99380.38;;;13.17;45.70
22964;BME280;11648;49.306;6.934;2023-02-16T08:09:42;99386.47;;;13.27;45.26
22964;BME280;11648;49.306;6.934;2023-02-16T08:12:14;99388.03;;;13.51;44.85
22964;BME280;11648;49.306;6.934;2023-02-16T08:14:42;99387.59;;;14.04;43.79
22964;BME280;11648;49.306;6.934;2023-02-16T08:17:09;99392.91;;;14.01;43.08
22964;BME280;11648;49.306;6.934;2023-02-16T08:19:36;99396.16;;;14.28;42.64
22964;BME280;11648;49.306;6.934;2023-02-16T08:22:03;99393.28;;;14.48;42.19
22964;BME280;11648;49.306;6.934;2023-02-16T08:24:31;99387.50;;;14.88;41.38
22964;BME280;11648;49.306;6.934;2023-02-16T08:27:00;99393.41;;;15.08;40.29
22964;BME280;11648;49.306;6.934;2023-02-16T08:29:29;99392.66;;;14.98;40.76
22964;BME280;11648;49.306;6.934;2023-02-16T08:31:56;99395.91;;;14.51;41.41
22964;BME280;11648;49.306;6.934;2023-02-16T08:34:23;99401.28;;;14.47;41.84
22964;BME280;11648;49.306;6.934;2023-02-16T08:36:55;99398.19;;;14.81;41.31
22964;BME280;11648;49.306;6.934;2023-02-16T08:39:25;99390.63;;;15.73;39.05
22964;BME280;11648;49.306;6.934;2023-02-16T08:41:53;99387.38;;;16.54;38.15
22964;BME280;11648;49.306;6.934;2023-02-16T08:44:21;99389.53;;;16.80;37.40
22964;BME280;11648;49.306;6.934;2023-02-16T08:46:50;99385.53;;;17.77;36.37
22964;BME280;11648;49.306;6.934;2023-02-16T08:49:19;99375.25;;;18.28;35.22
22964;BME280;11648;49.306;6.934;2023-02-16T08:51:53;99374.50;;;18.87;34.20
22964;BME280;11648;49.306;6.934;2023-02-16T08:54:27;99382.50;;;19.45;33.46
22964;BME280;11648;49.306;6.934;2023-02-16T08:56:56;99378.94;;;19.99;32.85
22964;BME280;11648;49.306;6.934;2023-02-16T08:59:25;99367.31;;;20.74;31.42
22964;BME280;11648;49.306;6.934;2023-02-16T09:01:54;99374.63;;;21.17;30.79
22964;BME280;11648;49.306;6.934;2023-02-16T09:04:21;99368.50;;;21.58;30.22
22964;BME280;11648;49.306;6.934;2023-02-16T09:06:48;99376.69;;;21.76;30.26
22964;BME280;11648;49.306;6.934;2023-02-16T09:09:14;99377.25;;;21.84;30.04
22964;BME280;11648;49.306;6.934;2023-02-16T09:11:42;99377.59;;;21.98;30.01
22964;BME280;11648;49.306;6.934;2023-02-16T09:14:08;99381.47;;;21.91;30.22
22964;BME280;11648;49.306;6.934;2023-02-16T09:16:36;99374.16;;;21.51;30.62
22964;BME280;11648;49.306;6.934;2023-02-16T09:19:05;99374.75;;;21.36;30.85
22964;BME280;11648;49.306;6.934;2023-02-16T09:21:32;99374.50;;;21.20;31.24
22964;BME280;11648;49.306;6.934;2023-02-16T09:24:01;99362.00;;;22.67;29.45
22964;BME280;11648;49.306;6.934;2023-02-16T09:26:36;99357.59;;;23.78;28.48
22964;BME280;11648;49.306;6.934;2023-02-16T09:29:04;99349.13;;;25.35;26.95
22964;BME280;11648;49.306;6.934;2023-02-16T09:31:34;99345.81;;;26.37;25.57
22964;BME280;11648;49.306;6.934;2023-02-16T09:34:06;99347.69;;;26.36;25.70
22964;BME280;11648;49.306;6.934;2023-02-16T09:36:33;99348.72;;;26.48;24.74
22964;BME280;11648;49.306;6.934;2023-02-16T09:39:00;99351.28;;;25.13;26.06
22964;BME280;11648;49.306;6.934;2023-02-16T09:41:53;99382.63;;;23.61;28.58
22964;BME280;11648;49.306;6.934;2023-02-16T09:47:02;99386.25;;;21.16;32.38
22964;BME280;11648;49.306;6.934;2023-02-16T09:49:34;99397.38;;;20.57;33.50
22964;BME280;11648;49.306;6.934;2023-02-16T10:03:22;99398.53;;;18.56;35.40
22964;BME280;11648;49.306;6.934;2023-02-16T10:08:50;99415.22;;;17.61;36.78
22964;BME280;11648;49.306;6.934;2023-02-16T10:15:06;99417.88;;;16.35;39.35
22964;BME280;11648;49.306;6.934;2023-02-16T10:20:12;99425.00;;;16.31;39.83
22964;BME280;11648;49.306;6.934;2023-02-16T10:22:48;99432.78;;;16.44;39.82
22964;BME280;11648;49.306;6.934;2023-02-16T10:25:27;99423.13;;;16.38;39.61
22964;BME280;11648;49.306;6.934;2023-02-16T10:30:48;99422.56;;;16.21;40.40
22964;BME280;11648;49.306;6.934;2023-02-16T10:33:27;99421.91;;;16.08;40.60
22964;BME280;11648;49.306;6.934;2023-02-16T10:36:02;99414.78;;;15.58;41.69
22964;BME280;11648;49.306;6.934;2023-02-16T10:38:48;99410.97;;;15.76;41.89
22964;BME280;11648;49.306;6.934;2023-02-16T10:41:27;99410.84;;;15.84;41.66
22964;BME280;11648;49.306;6.934;2023-02-16T10:44:08;99404.75;;;16.26;40.99
22964;BME280;11648;49.306;6.934;2023-02-16T10:46:53;99396.06;;;17.05;40.01
22964;BME280;11648;49.306;6.934;2023-02-16T10:49:23;99395.50;;;17.31;38.85
22964;BME280;11648;49.306;6.934;2023-02-16T10:51:52;99389.03;;;17.41;38.74
22964;BME280;11648;49.306;6.934;2023-02-16T10:54:25;99394.25;;;17.46;38.46
22964;BME280;11648;49.306;6.934;2023-02-16T10:59:40;99403.34;;;17.36;38.65
22964;BME280;11648;49.306;6.934;2023-02-16T11:02:29;99402.69;;;17.64;38.29
22964;BME280;11648;49.306;6.934;2023-02-16T11:04:57;99405.50;;;17.95;37.65
22964;BME280;11648;49.306;6.934;2023-02-16T11:07:26;99395.59;;;17.65;38.50
22964;BME280;11648;49.306;6.934;2023-02-16T11:09:55;99397.75;;;17.48;38.46
22964;BME280;11648;49.306;6.934;2023-02-16T11:12:35;99401.09;;;17.57;38.92
22964;BME280;11648;49.306;6.934;2023-02-16T11:17:51;99403.66;;;17.97;38.48
22964;BME280;11648;49.306;6.934;2023-02-16T11:23:21;99379.03;;;20.22;34.52
22964;BME280;11648;49.306;6.934;2023-02-16T11:31:30;99384.16;;;19.49;35.10
22964;BME280;11648;49.306;6.934;2023-02-16T11:34:03;99371.13;;;18.82;36.03
22964;BME280;11648;49.306;6.934;2023-02-16T11:36:38;99383.16;;;19.24;36.35
22964;BME280;11648;49.306;6.934;2023-02-16T11:39:22;99371.59;;;20.55;34.59
22964;BME280;11648;49.306;6.934;2023-02-16T11:41:53;99353.28;;;22.61;31.35
22964;BME280;11648;49.306;6.934;2023-02-16T11:44:25;99357.66;;;23.93;29.06
22964;BME280;11648;49.306;6.934;2023-02-16T11:46:54;99339.44;;;25.47;27.35
22964;BME280;11648;49.306;6.934;2023-02-16T11:49:35;99342.06;;;25.01;27.37
22964;BME280;11648;49.306;6.934;2023-02-16T11:54:50;99333.03;;;25.49;26.86
22964;BME280;11648;49.306;6.934;2023-02-16T11:57:27;99337.81;;;23.79;28.69
22964;BME280;11648;49.306;6.934;2023-02-16T11:59:55;99330.72;;;24.12;28.97
22964;BME280;11648;49.306;6.934;2023-02-16T12:05:31;99352.63;;;21.96;32.33
22964;BME280;11648;49.306;6.934;2023-02-16T12:08:23;99349.16;;;21.72;32.09
22964;BME280;11648;49.306;6.934;2023-02-16T12:16:34;99331.41;;;21.48;32.85
22964;BME280;11648;49.306;6.934;2023-02-16T12:21:55;99324.03;;;21.53;32.81
22964;BME280;11648;49.306;6.934;2023-02-16T12:27:19;99323.72;;;22.02;32.35
22964;BME280;11648;49.306;6.934;2023-02-16T12:30:07;99322.34;;;20.60;34.41
22964;BME280;11648;49.306;6.934;2023-02-16T12:32:47;99322.50;;;20.08;35.15
22964;BME280;11648;49.306;6.934;2023-02-16T12:43:41;99327.94;;;18.97;37.51
22964;BME280;11648;49.306;6.934;2023-02-16T12:51:20;99312.47;;;19.08;37.79
22964;BME280;11648;49.306;6.934;2023-02-16T12:53:58;99313.03;;;18.90;37.80
22964;BME280;11648;49.306;6.934;2023-02-16T12:56:35;99306.13;;;17.92;39.30
22964;BME280;11648;49.306;6.934;2023-02-16T12:59:23;99293.16;;;18.41;39.07
22964;BME280;11648;49.306;6.934;2023-02-16T13:01:53;99300.63;;;17.98;39.47
22964;BME280;11648;49.306;6.934;2023-02-16T13:04:45;99304.25;;;17.61;40.51
22964;BME280;11648;49.306;6.934;2023-02-16T13:07:38;99299.47;;;17.39;40.80
22964;BME280;11648;49.306;6.934;2023-02-16T13:10:19;99300.94;;;17.15;41.38
22964;BME280;11648;49.306;6.934;2023-02-16T13:13:02;99298.13;;;17.21;41.93
22964;BME280;11648;49.306;6.934;2023-02-16T13:15:37;99286.31;;;16.96;42.35
22964;BME280;11648;49.306;6.934;2023-02-16T13:18:12;99284.69;;;17.27;41.63
22964;BME280;11648;49.306;6.934;2023-02-16T13:21:08;99275.19;;;17.52;41.73
22964;BME280;11648;49.306;6.934;2023-02-16T13:26:48;99275.31;;;17.46;41.94
22964;BME280;11648;49.306;6.934;2023-02-16T13:38:00;99292.84;;;16.83;43.33
22964;BME280;11648;49.306;6.934;2023-02-16T13:40:55;99290.16;;;16.84;43.37
22964;BME280;11648;49.306;6.934;2023-02-16T13:43:46;99288.13;;;16.55;43.84
22964;BME280;11648;49.306;6.934;2023-02-16T13:46:26;99294.72;;;16.77;43.57
22964;BME280;11648;49.306;6.934;2023-02-16T13:48:54;99296.78;;;16.66;44.01
22964;BME280;11648;49.306;6.934;2023-02-16T13:51:24;99291.06;;;16.83;43.93
22964;BME280;11648;49.306;6.934;2023-02-16T13:53:57;99294.75;;;17.14;43.47
22964;BME280;11648;49.306;6.934;2023-02-16T13:58:56;99287.94;;;17.03;43.54
22964;BME280;11648;49.306;6.934;2023-02-16T14:01:40;99281.25;;;16.85;44.25
22964;BME280;11648;49.306;6.934;2023-02-16T14:19:53;99283.41;;;15.82;48.90
22964;BME280;11648;49.306;6.934;2023-02-16T14:30:49;99299.72;;;15.62;49.59
22964;BME280;11648;49.306;6.934;2023-02-16T14:33:31;99299.53;;;15.73;49.30
22964;BME280;11648;49.306;6.934;2023-02-16T14:36:11;99289.94;;;16.10;49.13
22964;BME280;11648;49.306;6.934;2023-02-16T14:41:14;99277.31;;;16.21;48.08
22964;BME280;11648;49.306;6.934;2023-02-16T14:43:51;99276.72;;;16.06;49.35
22964;BME280;11648;49.306;6.934;2023-02-16T14:46:50;99276.66;;;16.10;49.17
22964;BME280;11648;49.306;6.934;2023-02-16T15:00:22;99281.22;;;16.02;48.62
22964;BME280;11648;49.306;6.934;2023-02-16T15:05:28;99288.44;;;15.96;48.51
22964;BME280;11648;49.306;6.934;2023-02-16T15:08:22;99287.56;;;15.97;48.37
22964;BME280;11648;49.306;6.934;2023-02-16T15:10:51;99291.34;;;15.84;48.92
22964;BME280;11648;49.306;6.934;2023-02-16T15:13:29;99284.06;;;15.95;49.11
22964;BME280;11648;49.306;6.934;2023-02-16T15:15:58;99277.59;;;16.08;48.47
22964;BME280;11648;49.306;6.934;2023-02-16T15:18:37;99285.84;;;15.94;48.33
22964;BME280;11648;49.306;6.934;2023-02-16T15:21:15;99279.44;;;16.03;49.06
22964;BME280;11648;49.306;6.934;2023-02-16T15:23:50;99270.06;;;15.87;48.96
22964;BME280;11648;49.306;6.934;2023-02-16T15:26:24;99275.22;;;15.93;49.79
22964;BME280;11648;49.306;6.934;2023-02-16T15:31:42;99280.91;;;15.74;50.05
22964;BME280;11648;49.306;6.934;2023-02-16T15:34:13;99272.72;;;15.85;49.74
22964;BME280;11648;49.306;6.934;2023-02-16T15:36:51;99279.78;;;15.88;51.29
22964;BME280;11648;49.306;6.934;2023-02-16T15:39:25;99273.53;;;15.89;52.30
22964;BME280;11648;49.306;6.934;2023-02-16T15:42:15;99263.84;;;15.86;52.86
22964;BME280;11648;49.306;6.934;2023-02-16T15:44:45;99262.97;;;15.86;53.97
22964;BME280;11648;49.306;6.934;2023-02-16T15:47:20;99262.28;;;15.76;53.19
22964;BME280;11648;49.306;6.934;2023-02-16T15:49:48;99256.22;;;15.69;52.29
22964;BME280;11648;49.306;6.934;2023-02-16T15:52:21;99260.59;;;15.72;52.39
22964;BME280;11648;49.306;6.934;2023-02-16T15:54:53;99265.84;;;15.75;52.61
22964;BME280;11648;49.306;6.934;2023-02-16T15:57:28;99264.03;;;15.77;52.95
22964;BME280;11648;49.306;6.934;2023-02-16T15:59:58;99263.06;;;15.81;53.44
22964;BME280;11648;49.306;6.934;2023-02-16T16:02:35;99262.38;;;15.70;52.61
22964;BME280;11648;49.306;6.934;2023-02-16T16:05:07;99258.78;;;15.74;51.94
22964;BME280;11648;49.306;6.934;2023-02-16T16:07:38;99257.88;;;15.75;52.03
22964;BME280;11648;49.306;6.934;2023-02-16T16:10:21;99254.34;;;15.74;52.17
22964;BME280;11648;49.306;6.934;2023-02-16T16:12:54;99251.75;;;15.73;51.79
22964;BME280;11648;49.306;6.934;2023-02-16T16:15:23;99251.84;;;15.67;52.08
22964;BME280;11648;49.306;6.934;2023-02-16T16:17:53;99256.25;;;15.66;52.65
22964;BME280;11648;49.306;6.934;2023-02-16T16:25:44;99255.50;;;15.61;51.76
22964;BME280;11648;49.306;6.934;2023-02-16T16:28:34;99255.56;;;15.58;51.59
22964;BME280;11648;49.306;6.934;2023-02-16T16:31:10;99252.91;;;15.57;51.21